Cristiano Medici

Recruteur en chef - Palermo
2 Mars 2028
Jeudi
Processus

Personnalité

Adaptabilité (10) Ambition (16) Controverse (11) Loyauté (10) Pression (12) Professionnalisme (2) Sportivité (11) Tempérament (7)

Profil

Style d'entraînement Démocratique
Diplôme Continental A
Détermination 6
Gestion des joueurs 9
Motivation 9
Discipline 5
Satisfaction professionnelle
100%
Fatigue
0%
Rôle Recruteur en chef
Salaire 95.6K p/s
Contrat 14.03.2030

Performance

Comportement Bon
Efficacité de l'entraînement
48%
Développement des joueurs
25%
Prévention des blessures
35%
Mise en place tactique
50%

Événements récents

A participé à une réunion de recrutement 35j
A évalué un joueur 35j
A évalué un joueur 35j
A évalué un joueur 42j
En formation continue 42j
A évalué un joueur 42j
En formation continue 42j
A évalué un joueur 42j

Suivi en cours

65
Joueur Club Statut Capacité Confiance Observé Dernière observation Dernier vote
Yannick Geiger BK Hacken Actif 91 / 118 40% 2 27.01.2028 -
Ezra Mayers West Ham United Actif 135 / 123 40% 2 26.01.2028 -
Finn Jeltsch VfB Stuttgart Actif 138 / 151 40% 1 25.01.2028 -
Filip Reshane Lillestrom Actif 87 / 99 40% 2 23.01.2028 -
Jens Mathijsen Willem II Actif 104 / 116 40% 1 23.01.2028 -
Josh King Chelsea Actif 155 / 153 40% 1 19.01.2028 -
Bahmed Deuff FC Metz Actif 116 / 124 40% 1 19.01.2028 -
Jon Esenga IF Elfsborg Actif 102 / 99 40% 2 18.01.2028 -
Gopolang Taunyane Ajax Cape Town Actif 111 / 110 40% 1 18.01.2028 -
Drew Baiera New York City Actif 90 / 102 40% 1 17.01.2028 -
Mikkel Hope IK Start Actif 91 / 113 40% 1 11.01.2028 -
Honest Ahanor Fiorentina Actif 126 / 147 40% 1 07.01.2028 -
Izan Merino Málaga Actif 122 / 134 40% 1 05.01.2028 -
Martim Cunha Porto Actif 105 / 112 40% 8 03.01.2028 -
Juan Giménez Athletic Bilbao Actif 125 / 122 40% 1 03.01.2028 -
Lennon Miller Udinese Actif 126 / 144 40% 1 02.01.2028 -
Markus Walker FC Midtjylland Actif 101 / 126 40% 1 02.01.2028 -
Teo Rodríguez Pagano San Lorenzo Actif 119 / 114 40% 1 31.08.2027 -
Keimer Sandoval Deportivo Cali Actif 89 / 106 40% 1 26.08.2027 -
Davide Bartesaghi AC Milan Actif 144 / 135 40% 1 23.08.2027 -
Vitor Reis Manchester City Actif 132 / 140 40% 1 23.08.2027 -
Enzo Galli Patronato Actif 106 / 107 40% 2 19.08.2027 -
Enzo Cardozo Huracán Actif 100 / 110 40% 2 16.08.2027 -
Juan Diego Perdomo Depor Actif 95 / 100 40% 1 03.08.2027 -
Ravshan Xayrullayev Bukhara Actif 78 / 94 40% 1 31.07.2027 -
Fernando Calero VfL Wolfsburg Actif 140 / 137 40% 1 28.07.2027 -
Djibril Sow Genoa Actif 138 / 140 40% 1 27.07.2027 -
Ángel Peñaranda Mineros de Guayana Actif 98 / 81 40% 1 22.07.2027 -
Mohamed Moussa Koïta Persik Actif 114 / 105 40% 1 22.07.2027 -
Toma Bašić Venezia Actif 131 / 134 40% 2 20.07.2027 -
Mauro Arambarri River Plate Actif 154 / 148 40% 1 15.07.2027 -
Jesper Karlström Udinese Actif 143 / 132 40% 2 11.07.2027 -
Elie N'Gatta Sochaux Actif 97 / 102 40% 2 07.07.2027 -
Harley Mills Peterborough United Actif 102 / 101 40% 2 05.07.2027 -
Simone Kosijer Triestina Actif 104 / 102 40% 3 01.07.2027 -
Daniel Kelly West Ham United Actif 121 / 125 40% 1 29.06.2027 -
Alfie Cresswell Derby County Actif 89 / 110 40% 1 28.06.2027 -
Mats Egbring Heerenveen Actif 105 / 107 40% 2 17.06.2027 -
Kian Best Eibar Actif 106 / 105 40% 1 16.06.2027 -
Fabián Correa Barranquilla Actif 78 / 98 40% 1 10.06.2027 -
Sascha Britschgi Fiorentina Actif 115 / 131 40% 2 07.06.2027 -
Lautaro Millán Independiente Actif 124 / 131 40% 1 07.06.2027 -
Paulo Cardoso Sporting CP Actif 95 / 100 40% 1 07.06.2027 -
Mattia Mannini Juve Stabia Actif 118 / 120 40% 1 01.06.2027 -
Gady Beyuku Modena Actif 108 / 116 40% 1 01.06.2027 -
Luca Lipani Udinese Actif 123 / 132 40% 3 29.01.2027 -
Juan Pablo De la Reta Maipú Actif 122 / 121 40% 1 28.01.2027 -
Mërgim Vojvoda Udinese Actif 130 / 131 40% 1 25.01.2027 -
Yerry Mina Cagliari Actif 133 / 141 40% 2 23.01.2027 -
Valentino Lazaro Al Ain Actif 134 / 131 40% 1 23.01.2027 -
Viktor Pekarik FK Senica Actif 102 / 125 40% 2 14.01.2027 -
Lucas Agazzi Benfica Actif 132 / 124 40% 2 08.01.2027 -
Denys Smetana Inhulets Actif 73 / 89 40% 1 06.01.2027 -
Joseph Jones Kryvbas Actif 92 / 99 40% 1 06.01.2027 -
Eivind Helland Bologna Actif 129 / 128 40% 1 25.08.2026 -
Zach Abbott Nottingham Forest Actif 106 / 124 40% 1 24.08.2026 -
Mathieu Brun Chamois Niortais Actif 119 / 129 40% 1 20.08.2026 -
Ignacio Perruzzi San Lorenzo Actif 112 / 122 40% 1 19.08.2026 -
Nahuel Herrera Porto Actif 125 / 123 40% 1 19.08.2026 -
Reed Baker-Whiting Nashville SC Actif 93 / 113 40% 1 18.08.2026 -
Elías Báez Atlanta United FC Actif 115 / 122 40% 1 18.08.2026 -
Fabio Andrea Ruggeri Carrarese Actif 108 / 116 40% 1 12.08.2026 -
Viery Fiorentina Actif 112 / 127 40% 1 08.08.2026 -
Agustín Obregón River Plate Actif 102 / 109 40% 1 07.08.2026 -
Marco Pašalić Orlando City Actif 130 / 125 40% 1 01.08.2026 -